sensor_id;sensor_type;location;lat;lon;timestamp;temperature;humidity
52030;DHT22;38043;53.224;6.580;2023-09-19T00:01:42;14.60;99.90
52030;DHT22;38043;53.224;6.580;2023-09-19T00:04:13;14.60;99.90
52030;DHT22;38043;53.224;6.580;2023-09-19T00:06:40;14.60;99.90
52030;DHT22;38043;53.224;6.580;2023-09-19T00:09:07;14.50;99.90
52030;DHT22;38043;53.224;6.580;2023-09-19T00:11:36;14.50;99.90
52030;DHT22;38043;53.224;6.580;2023-09-19T00:14:03;14.50;99.90
52030;DHT22;38043;53.224;6.580;2023-09-19T00:16:30;14.40;99.90
52030;DHT22;38043;53.224;6.580;2023-09-19T00:18:58;14.40;99.90
52030;DHT22;38043;53.224;6.580;2023-09-19T00:21:24;14.40;99.90
52030;DHT22;38043;53.224;6.580;2023-09-19T00:23:50;14.40;99.90
52030;DHT22;38043;53.224;6.580;2023-09-19T00:26:17;14.40;99.90
52030;DHT22;38043;53.224;6.580;2023-09-19T00:28:44;14.30;99.90
52030;DHT22;38043;53.224;6.580;2023-09-19T00:31:12;14.40;99.90
52030;DHT22;38043;53.224;6.580;2023-09-19T00:33:38;14.30;99.90
52030;DHT22;38043;53.224;6.580;2023-09-19T00:36:04;14.30;99.90
52030;DHT22;38043;53.224;6.580;2023-09-19T00:38:30;14.30;99.90
52030;DHT22;38043;53.224;6.580;2023-09-19T00:40:57;14.30;99.90
52030;DHT22;38043;53.224;6.580;2023-09-19T00:43:28;14.30;99.90
52030;DHT22;38043;53.224;6.580;2023-09-19T00:45:56;14.20;99.90
52030;DHT22;38043;53.224;6.580;2023-09-19T00:48:22;14.20;99.90
52030;DHT22;38043;53.224;6.580;2023-09-19T00:50:49;14.20;99.90
52030;DHT22;38043;53.224;6.580;2023-09-19T00:53:18;14.30;99.90
52030;DHT22;38043;53.224;6.580;2023-09-19T00:55:46;14.10;99.90
52030;DHT22;38043;53.224;6.580;2023-09-19T00:58:16;14.10;99.90
52030;DHT22;38043;53.224;6.580;2023-09-19T01:00:43;14.10;99.90
52030;DHT22;38043;53.224;6.580;2023-09-19T01:03:11;14.10;99.90
52030;DHT22;38043;53.224;6.580;2023-09-19T01:05:39;14.00;99.90
52030;DHT22;38043;53.224;6.580;2023-09-19T01:08:05;14.00;99.90
52030;DHT22;38043;53.224;6.580;2023-09-19T01:10:33;14.00;99.90
52030;DHT22;38043;53.224;6.580;2023-09-19T01:13:26;14.00;99.90
52030;DHT22;38043;53.224;6.580;2023-09-19T01:16:06;13.90;99.90
52030;DHT22;38043;53.224;6.580;2023-09-19T01:18:54;13.90;99.90
52030;DHT22;38043;53.224;6.580;2023-09-19T01:29:49;13.70;99.90
52030;DHT22;38043;53.224;6.580;2023-09-19T01:32:17;13.70;99.90
52030;DHT22;38043;53.224;6.580;2023-09-19T01:34:53;13.70;99.90
52030;DHT22;38043;53.224;6.580;2023-09-19T01:37:22;13.70;99.90
52030;DHT22;38043;53.224;6.580;2023-09-19T01:39:57;13.70;99.90
52030;DHT22;38043;53.224;6.580;2023-09-19T01:42:28;13.60;99.90
52030;DHT22;38043;53.224;6.580;2023-09-19T01:47:37;13.60;99.90
52030;DHT22;38043;53.224;6.580;2023-09-19T01:53:02;13.60;99.90
52030;DHT22;38043;53.224;6.580;2023-09-19T01:55:29;13.50;99.90
52030;DHT22;38043;53.224;6.580;2023-09-19T01:58:08;13.50;99.90
52030;DHT22;38043;53.224;6.580;2023-09-19T02:00:41;13.50;99.90
52030;DHT22;38043;53.224;6.580;2023-09-19T02:03:09;13.40;99.90
52030;DHT22;38043;53.224;6.580;2023-09-19T02:05:35;13.40;99.90
52030;DHT22;38043;53.224;6.580;2023-09-19T02:08:01;13.40;99.90
52030;DHT22;38043;53.224;6.580;2023-09-19T02:10:27;13.40;99.90
52030;DHT22;38043;53.224;6.580;2023-09-19T02:12:52;13.40;99.90
52030;DHT22;38043;53.224;6.580;2023-09-19T02:15:18;13.40;99.90
52030;DHT22;38043;53.224;6.580;2023-09-19T02:17:44;13.40;99.90
52030;DHT22;38043;53.224;6.580;2023-09-19T02:20:12;13.30;99.90
52030;DHT22;38043;53.224;6.580;2023-09-19T02:22:43;13.30;99.90
52030;DHT22;38043;53.224;6.580;2023-09-19T02:25:10;13.30;99.90
52030;DHT22;38043;53.224;6.580;2023-09-19T02:27:38;13.30;99.90
52030;DHT22;38043;53.224;6.580;2023-09-19T02:30:08;13.30;99.90
52030;DHT22;38043;53.224;6.580;2023-09-19T02:32:37;13.10;99.90
52030;DHT22;38043;53.224;6.580;2023-09-19T02:35:06;13.20;99.90
52030;DHT22;38043;53.224;6.580;2023-09-19T02:37:32;13.20;99.90
52030;DHT22;38043;53.224;6.580;2023-09-19T02:39:58;13.10;99.90
52030;DHT22;38043;53.224;6.580;2023-09-19T02:42:24;13.90;99.90
52030;DHT22;38043;53.224;6.580;2023-09-19T02:44:49;13.10;99.90
52030;DHT22;38043;53.224;6.580;2023-09-19T02:47:15;13.00;99.90
52030;DHT22;38043;53.224;6.580;2023-09-19T02:49:42;13.00;99.90
52030;DHT22;38043;53.224;6.580;2023-09-19T02:52:08;13.00;99.90
52030;DHT22;38043;53.224;6.580;2023-09-19T02:54:36;13.10;99.90
52030;DHT22;38043;53.224;6.580;2023-09-19T02:57:08;13.00;99.90
52030;DHT22;38043;53.224;6.580;2023-09-19T02:59:35;13.00;99.90
52030;DHT22;38043;53.224;6.580;2023-09-19T03:02:02;12.90;99.90
52030;DHT22;38043;53.224;6.580;2023-09-19T03:04:30;12.90;99.90
52030;DHT22;38043;53.224;6.580;2023-09-19T03:06:56;12.90;99.90
52030;DHT22;38043;53.224;6.580;2023-09-19T03:09:28;13.10;99.90
52030;DHT22;38043;53.224;6.580;2023-09-19T03:11:54;12.90;99.90
52030;DHT22;38043;53.224;6.580;2023-09-19T03:14:19;13.00;99.90
52030;DHT22;38043;53.224;6.580;2023-09-19T03:16:45;12.90;99.90
52030;DHT22;38043;53.224;6.580;2023-09-19T03:19:11;12.90;99.90
52030;DHT22;38043;53.224;6.580;2023-09-19T03:21:37;12.90;99.90
52030;DHT22;38043;53.224;6.580;2023-09-19T03:24:04;12.90;99.90
52030;DHT22;38043;53.224;6.580;2023-09-19T03:26:30;12.90;99.90
52030;DHT22;38043;53.224;6.580;2023-09-19T03:28:57;12.90;99.90
52030;DHT22;38043;53.224;6.580;2023-09-19T03:31:22;12.90;99.90
52030;DHT22;38043;53.224;6.580;2023-09-19T03:33:48;12.90;99.90
52030;DHT22;38043;53.224;6.580;2023-09-19T03:36:14;12.90;99.90
52030;DHT22;38043;53.224;6.580;2023-09-19T03:38:40;13.40;99.90
52030;DHT22;38043;53.224;6.580;2023-09-19T03:41:05;12.90;99.90
52030;DHT22;38043;53.224;6.580;2023-09-19T03:43:34;12.90;99.90
52030;DHT22;38043;53.224;6.580;2023-09-19T03:46:03;12.90;99.90
52030;DHT22;38043;53.224;6.580;2023-09-19T03:48:30;12.90;99.90
52030;DHT22;38043;53.224;6.580;2023-09-19T03:50:56;12.90;99.90
52030;DHT22;38043;53.224;6.580;2023-09-19T03:53:22;12.90;99.90
52030;DHT22;38043;53.224;6.580;2023-09-19T03:55:48;12.90;99.90
52030;DHT22;38043;53.224;6.580;2023-09-19T03:58:14;12.90;99.90
52030;DHT22;38043;53.224;6.580;2023-09-19T04:00:40;12.80;99.90
52030;DHT22;38043;53.224;6.580;2023-09-19T04:03:06;12.80;99.90
52030;DHT22;38043;53.224;6.580;2023-09-19T04:05:32;12.90;99.90
52030;DHT22;38043;53.224;6.580;2023-09-19T04:07:59;12.80;99.90
52030;DHT22;38043;53.224;6.580;2023-09-19T04:10:25;12.80;99.90
52030;DHT22;38043;53.224;6.580;2023-09-19T04:12:56;12.90;99.90
52030;DHT22;38043;53.224;6.580;2023-09-19T04:15:23;12.90;99.90
52030;DHT22;38043;53.224;6.580;2023-09-19T04:17:52;12.90;99.90
52030;DHT22;38043;53.224;6.580;2023-09-19T04:20:18;12.90;99.90
52030;DHT22;38043;53.224;6.580;2023-09-19T04:22:50;12.90;99.90
52030;DHT22;38043;53.224;6.580;2023-09-19T04:25:16;12.90;99.90
52030;DHT22;38043;53.224;6.580;2023-09-19T04:27:41;13.00;99.90
52030;DHT22;38043;53.224;6.580;2023-09-19T04:30:08;12.90;99.90
52030;DHT22;38043;53.224;6.580;2023-09-19T04:32:40;13.00;99.90
52030;DHT22;38043;53.224;6.580;2023-09-19T04:35:10;13.00;99.90
52030;DHT22;38043;53.224;6.580;2023-09-19T04:37:40;13.00;99.90
52030;DHT22;38043;53.224;6.580;2023-09-19T04:40:10;13.00;99.90
52030;DHT22;38043;53.224;6.580;2023-09-19T04:42:46;13.00;99.90
52030;DHT22;38043;53.224;6.580;2023-09-19T04:45:18;13.00;99.90
52030;DHT22;38043;53.224;6.580;2023-09-19T04:47:47;13.00;99.90
52030;DHT22;38043;53.224;6.580;2023-09-19T04:50:13;13.00;99.90
52030;DHT22;38043;53.224;6.580;2023-09-19T04:52:43;13.00;99.90
52030;DHT22;38043;53.224;6.580;2023-09-19T04:55:16;13.00;99.90
52030;DHT22;38043;53.224;6.580;2023-09-19T04:57:52;13.00;99.90
52030;DHT22;38043;53.224;6.580;2023-09-19T05:00:21;13.00;99.90
52030;DHT22;38043;53.224;6.580;2023-09-19T05:02:50;13.00;99.90
52030;DHT22;38043;53.224;6.580;2023-09-19T05:05:17;13.10;99.90
52030;DHT22;38043;53.224;6.580;2023-09-19T05:07:45;13.00;99.90
52030;DHT22;38043;53.224;6.580;2023-09-19T05:10:11;13.10;99.90
52030;DHT22;38043;53.224;6.580;2023-09-19T05:12:38;13.10;99.90
52030;DHT22;38043;53.224;6.580;2023-09-19T05:15:08;13.10;99.90
52030;DHT22;38043;53.224;6.580;2023-09-19T05:17:35;13.10;99.90
52030;DHT22;38043;53.224;6.580;2023-09-19T05:20:01;13.10;99.90
52030;DHT22;38043;53.224;6.580;2023-09-19T05:22:44;13.10;99.90
52030;DHT22;38043;53.224;6.580;2023-09-19T05:25:11;13.10;99.90
52030;DHT22;38043;53.224;6.580;2023-09-19T05:27:42;13.20;99.90
52030;DHT22;38043;53.224;6.580;2023-09-19T05:30:09;13.20;99.90
52030;DHT22;38043;53.224;6.580;2023-09-19T05:32:35;13.20;99.90
52030;DHT22;38043;53.224;6.580;2023-09-19T05:35:01;13.20;99.90
52030;DHT22;38043;53.224;6.580;2023-09-19T05:37:27;13.20;99.90
52030;DHT22;38043;53.224;6.580;2023-09-19T05:39:52;13.30;99.90
52030;DHT22;38043;53.224;6.580;2023-09-19T05:42:21;13.30;99.90
52030;DHT22;38043;53.224;6.580;2023-09-19T05:44:47;13.30;99.90
52030;DHT22;38043;53.224;6.580;2023-09-19T05:47:15;13.30;99.90
52030;DHT22;38043;53.224;6.580;2023-09-19T05:49:41;13.30;99.90
52030;DHT22;38043;53.224;6.580;2023-09-19T05:52:07;13.30;99.90
52030;DHT22;38043;53.224;6.580;2023-09-19T05:54:33;13.40;99.90
52030;DHT22;38043;53.224;6.580;2023-09-19T05:57:00;13.10;99.90
52030;DHT22;38043;53.224;6.580;2023-09-19T05:59:28;13.40;99.90
52030;DHT22;38043;53.224;6.580;2023-09-19T06:01:55;13.40;99.90
52030;DHT22;38043;53.224;6.580;2023-09-19T06:04:20;13.30;99.90
52030;DHT22;38043;53.224;6.580;2023-09-19T06:06:47;13.50;99.90
52030;DHT22;38043;53.224;6.580;2023-09-19T06:09:16;13.40;99.90
52030;DHT22;38043;53.224;6.580;2023-09-19T06:11:43;13.50;99.90
52030;DHT22;38043;53.224;6.580;2023-09-19T06:14:08;13.50;99.90
52030;DHT22;38043;53.224;6.580;2023-09-19T06:16:36;13.50;99.90
52030;DHT22;38043;53.224;6.580;2023-09-19T06:19:03;13.60;99.90
52030;DHT22;38043;53.224;6.580;2023-09-19T06:21:35;13.60;99.90
52030;DHT22;38043;53.224;6.580;2023-09-19T06:24:01;13.60;99.90
52030;DHT22;38043;53.224;6.580;2023-09-19T06:26:28;13.60;99.90
52030;DHT22;38043;53.224;6.580;2023-09-19T06:28:55;13.70;99.90
52030;DHT22;38043;53.224;6.580;2023-09-19T06:31:21;13.70;99.90
52030;DHT22;38043;53.224;6.580;2023-09-19T06:33:52;13.70;99.90
52030;DHT22;38043;53.224;6.580;2023-09-19T06:36:17;13.80;99.90
52030;DHT22;38043;53.224;6.580;2023-09-19T06:38:47;13.80;99.90
52030;DHT22;38043;53.224;6.580;2023-09-19T06:41:17;13.80;99.90
52030;DHT22;38043;53.224;6.580;2023-09-19T06:43:43;13.90;99.90
52030;DHT22;38043;53.224;6.580;2023-09-19T06:46:09;13.90;99.90
52030;DHT22;38043;53.224;6.580;2023-09-19T06:48:35;13.90;99.90
52030;DHT22;38043;53.224;6.580;2023-09-19T06:51:01;14.00;99.90
52030;DHT22;38043;53.224;6.580;2023-09-19T06:53:31;14.60;99.90
52030;DHT22;38043;53.224;6.580;2023-09-19T06:55:57;14.10;99.90
52030;DHT22;38043;53.224;6.580;2023-09-19T06:58:23;14.10;99.90
52030;DHT22;38043;53.224;6.580;2023-09-19T07:00:49;14.20;99.90
52030;DHT22;38043;53.224;6.580;2023-09-19T07:03:16;14.30;99.90
52030;DHT22;38043;53.224;6.580;2023-09-19T07:05:48;14.30;99.90
52030;DHT22;38043;53.224;6.580;2023-09-19T07:08:14;14.40;99.90
52030;DHT22;38043;53.224;6.580;2023-09-19T07:10:41;14.40;99.90
52030;DHT22;38043;53.224;6.580;2023-09-19T07:13:14;14.50;99.90
52030;DHT22;38043;53.224;6.580;2023-09-19T07:15:42;14.50;99.90
52030;DHT22;38043;53.224;6.580;2023-09-19T07:18:15;14.60;99.90
52030;DHT22;38043;53.224;6.580;2023-09-19T07:20:44;14.70;99.90
52030;DHT22;38043;53.224;6.580;2023-09-19T07:23:21;14.70;99.90
52030;DHT22;38043;53.224;6.580;2023-09-19T07:25:49;14.70;99.90
52030;DHT22;38043;53.224;6.580;2023-09-19T07:28:15;14.90;99.90
52030;DHT22;38043;53.224;6.580;2023-09-19T07:30:41;14.90;99.90
52030;DHT22;38043;53.224;6.580;2023-09-19T07:33:08;14.90;99.90
52030;DHT22;38043;53.224;6.580;2023-09-19T07:35:40;14.90;99.90
52030;DHT22;38043;53.224;6.580;2023-09-19T07:38:09;14.90;99.90
52030;DHT22;38043;53.224;6.580;2023-09-19T07:40:37;15.50;99.90
52030;DHT22;38043;53.224;6.580;2023-09-19T07:43:05;15.00;99.90
52030;DHT22;38043;53.224;6.580;2023-09-19T07:45:35;15.00;99.90
52030;DHT22;38043;53.224;6.580;2023-09-19T07:48:02;15.10;99.90
52030;DHT22;38043;53.224;6.580;2023-09-19T07:50:34;15.20;99.90
52030;DHT22;38043;53.224;6.580;2023-09-19T07:53:02;14.80;99.90
52030;DHT22;38043;53.224;6.580;2023-09-19T07:55:30;15.40;99.90
52030;DHT22;38043;53.224;6.580;2023-09-19T07:57:56;16.00;99.90
52030;DHT22;38043;53.224;6.580;2023-09-19T08:00:23;15.40;99.90
52030;DHT22;38043;53.224;6.580;2023-09-19T08:02:49;15.40;99.90
52030;DHT22;38043;53.224;6.580;2023-09-19T08:05:15;15.50;99.90
52030;DHT22;38043;53.224;6.580;2023-09-19T08:07:46;15.50;99.90
52030;DHT22;38043;53.224;6.580;2023-09-19T08:10:14;15.60;99.90
52030;DHT22;38043;53.224;6.580;2023-09-19T08:12:45;15.70;99.90
52030;DHT22;38043;53.224;6.580;2023-09-19T08:15:16;15.70;99.90
52030;DHT22;38043;53.224;6.580;2023-09-19T08:17:48;15.80;99.90
52030;DHT22;38043;53.224;6.580;2023-09-19T08:20:14;15.90;99.90
52030;DHT22;38043;53.224;6.580;2023-09-19T08:25:14;16.30;99.90
52030;DHT22;38043;53.224;6.580;2023-09-19T08:27:46;16.40;99.90
52030;DHT22;38043;53.224;6.580;2023-09-19T08:30:16;16.60;99.90
52030;DHT22;38043;53.224;6.580;2023-09-19T08:32:43;16.70;99.90
52030;DHT22;38043;53.224;6.580;2023-09-19T08:35:12;16.70;99.90
52030;DHT22;38043;53.224;6.580;2023-09-19T08:37:38;16.70;99.90
52030;DHT22;38043;53.224;6.580;2023-09-19T08:40:04;16.80;99.90
52030;DHT22;38043;53.224;6.580;2023-09-19T08:42:47;16.90;99.90
52030;DHT22;38043;53.224;6.580;2023-09-19T08:45:14;17.00;99.90
52030;DHT22;38043;53.224;6.580;2023-09-19T08:47:46;17.00;99.90
52030;DHT22;38043;53.224;6.580;2023-09-19T08:50:27;17.10;99.90
52030;DHT22;38043;53.224;6.580;2023-09-19T08:52:55;17.10;99.90
52030;DHT22;38043;53.224;6.580;2023-09-19T08:55:27;17.20;99.90
52030;DHT22;38043;53.224;6.580;2023-09-19T08:58:00;17.20;99.90
52030;DHT22;38043;53.224;6.580;2023-09-19T09:00:48;17.30;99.90
52030;DHT22;38043;53.224;6.580;2023-09-19T09:03:19;17.30;99.90
52030;DHT22;38043;53.224;6.580;2023-09-19T09:05:47;17.30;99.90
52030;DHT22;38043;53.224;6.580;2023-09-19T09:08:15;17.30;99.90
52030;DHT22;38043;53.224;6.580;2023-09-19T09:10:47;17.40;99.90
52030;DHT22;38043;53.224;6.580;2023-09-19T09:13:14;17.20;99.90
52030;DHT22;38043;53.224;6.580;2023-09-19T09:15:41;17.40;99.90
52030;DHT22;38043;53.224;6.580;2023-09-19T09:18:10;17.20;99.90
52030;DHT22;38043;53.224;6.580;2023-09-19T09:20:36;17.30;99.90
52030;DHT22;38043;53.224;6.580;2023-09-19T09:23:05;17.30;99.90
52030;DHT22;38043;53.224;6.580;2023-09-19T09:25:52;17.30;99.90
52030;DHT22;38043;53.224;6.580;2023-09-19T09:28:34;17.30;99.90
52030;DHT22;38043;53.224;6.580;2023-09-19T09:31:05;17.30;99.90
52030;DHT22;38043;53.224;6.580;2023-09-19T09:33:38;17.30;99.90
52030;DHT22;38043;53.224;6.580;2023-09-19T09:36:05;17.30;99.90
52030;DHT22;38043;53.224;6.580;2023-09-19T09:38:52;17.30;99.90
52030;DHT22;38043;53.224;6.580;2023-09-19T09:41:36;17.30;99.90
52030;DHT22;38043;53.224;6.580;2023-09-19T09:44:23;17.40;99.90
52030;DHT22;38043;53.224;6.580;2023-09-19T09:46:49;17.60;99.90
52030;DHT22;38043;53.224;6.580;2023-09-19T09:49:22;17.80;99.90
52030;DHT22;38043;53.224;6.580;2023-09-19T09:52:03;17.90;99.90
52030;DHT22;38043;53.224;6.580;2023-09-19T09:55:06;18.00;99.90
52030;DHT22;38043;53.224;6.580;2023-09-19T09:57:33;17.90;99.90
52030;DHT22;38043;53.224;6.580;2023-09-19T10:00:02;17.90;99.90
52030;DHT22;38043;53.224;6.580;2023-09-19T10:02:48;17.90;99.90
52030;DHT22;38043;53.224;6.580;2023-09-19T10:05:21;18.00;99.90
52030;DHT22;38043;53.224;6.580;2023-09-19T10:07:53;18.30;99.90
52030;DHT22;38043;53.224;6.580;2023-09-19T10:10:30;18.40;99.90
52030;DHT22;38043;53.224;6.580;2023-09-19T10:13:06;18.60;99.90
52030;DHT22;38043;53.224;6.580;2023-09-19T10:15:33;18.70;99.90
52030;DHT22;38043;53.224;6.580;2023-09-19T10:18:05;18.70;99.90
52030;DHT22;38043;53.224;6.580;2023-09-19T10:20:34;18.80;99.90
52030;DHT22;38043;53.224;6.580;2023-09-19T10:23:07;18.80;99.90
52030;DHT22;38043;53.224;6.580;2023-09-19T10:25:42;18.80;99.90
52030;DHT22;38043;53.224;6.580;2023-09-19T10:28:09;18.90;99.90
52030;DHT22;38043;53.224;6.580;2023-09-19T10:30:45;18.90;99.90
52030;DHT22;38043;53.224;6.580;2023-09-19T10:33:15;18.80;99.90
52030;DHT22;38043;53.224;6.580;2023-09-19T10:35:45;18.70;99.90
52030;DHT22;38043;53.224;6.580;2023-09-19T10:38:13;18.70;99.90
52030;DHT22;38043;53.224;6.580;2023-09-19T10:40:40;18.80;99.90
52030;DHT22;38043;53.224;6.580;2023-09-19T10:43:13;18.90;99.90
52030;DHT22;38043;53.224;6.580;2023-09-19T10:45:49;19.20;99.90
52030;DHT22;38043;53.224;6.580;2023-09-19T10:48:19;19.30;99.90
52030;DHT22;38043;53.224;6.580;2023-09-19T10:50:49;19.20;99.90
52030;DHT22;38043;53.224;6.580;2023-09-19T10:53:17;19.00;99.90
52030;DHT22;38043;53.224;6.580;2023-09-19T10:55:51;18.80;99.90
52030;DHT22;38043;53.224;6.580;2023-09-19T10:58:27;18.70;99.90
52030;DHT22;38043;53.224;6.580;2023-09-19T11:00:58;18.60;99.90
52030;DHT22;38043;53.224;6.580;2023-09-19T11:03:31;18.40;99.90
52030;DHT22;38043;53.224;6.580;2023-09-19T11:08:50;18.60;99.90
52030;DHT22;38043;53.224;6.580;2023-09-19T11:30:49;18.40;99.90
52030;DHT22;38043;53.224;6.580;2023-09-19T11:33:22;18.30;99.90
52030;DHT22;38043;53.224;6.580;2023-09-19T11:36:08;18.30;99.90
52030;DHT22;38043;53.224;6.580;2023-09-19T11:49:33;18.40;99.90
52030;DHT22;38043;53.224;6.580;2023-09-19T11:52:04;18.40;99.90
52030;DHT22;38043;53.224;6.580;2023-09-19T11:54:35;18.40;99.90
52030;DHT22;38043;53.224;6.580;2023-09-19T11:57:05;18.40;99.90
52030;DHT22;38043;53.224;6.580;2023-09-19T11:59:38;18.50;99.90
52030;DHT22;38043;53.224;6.580;2023-09-19T12:02:05;18.30;99.90
52030;DHT22;38043;53.224;6.580;2023-09-19T12:04:43;18.30;99.90
52030;DHT22;38043;53.224;6.580;2023-09-19T12:07:17;18.20;99.90
52030;DHT22;38043;53.224;6.580;2023-09-19T12:09:47;18.10;99.90
52030;DHT22;38043;53.224;6.580;2023-09-19T12:12:39;18.10;99.90
52030;DHT22;38043;53.224;6.580;2023-09-19T12:15:08;17.90;99.90
52030;DHT22;38043;53.224;6.580;2023-09-19T12:17:41;17.90;99.90
52030;DHT22;38043;53.224;6.580;2023-09-19T12:20:08;17.90;99.90
52030;DHT22;38043;53.224;6.580;2023-09-19T12:22:42;17.90;99.90
52030;DHT22;38043;53.224;6.580;2023-09-19T12:25:09;17.80;99.90
52030;DHT22;38043;53.224;6.580;2023-09-19T12:27:46;17.80;99.90
52030;DHT22;38043;53.224;6.580;2023-09-19T12:30:27;17.80;99.90
52030;DHT22;38043;53.224;6.580;2023-09-19T12:32:54;17.80;99.90
52030;DHT22;38043;53.224;6.580;2023-09-19T12:35:28;17.80;99.90
52030;DHT22;38043;53.224;6.580;2023-09-19T12:37:56;17.70;99.90
52030;DHT22;38043;53.224;6.580;2023-09-19T12:40:22;17.60;99.90
52030;DHT22;38043;53.224;6.580;2023-09-19T12:42:53;17.50;99.90
52030;DHT22;38043;53.224;6.580;2023-09-19T12:45:25;17.60;99.90
52030;DHT22;38043;53.224;6.580;2023-09-19T12:51:11;17.60;99.90
52030;DHT22;38043;53.224;6.580;2023-09-19T12:53:44;17.60;99.90
52030;DHT22;38043;53.224;6.580;2023-09-19T12:56:16;17.60;99.90
52030;DHT22;38043;53.224;6.580;2023-09-19T12:58:52;17.60;99.90
52030;DHT22;38043;53.224;6.580;2023-09-19T13:01:21;17.60;99.90
52030;DHT22;38043;53.224;6.580;2023-09-19T13:04:19;17.70;99.90
52030;DHT22;38043;53.224;6.580;2023-09-19T13:06:51;17.70;99.90
52030;DHT22;38043;53.224;6.580;2023-09-19T13:09:20;17.70;99.90
52030;DHT22;38043;53.224;6.580;2023-09-19T13:11:46;17.60;99.90
52030;DHT22;38043;53.224;6.580;2023-09-19T13:16:58;17.70;99.90
52030;DHT22;38043;53.224;6.580;2023-09-19T13:25:08;17.70;99.90
52030;DHT22;38043;53.224;6.580;2023-09-19T13:27:37;17.70;99.90
52030;DHT22;38043;53.224;6.580;2023-09-19T13:30:03;17.60;99.90
52030;DHT22;38043;53.224;6.580;2023-09-19T13:32:32;17.60;99.90
52030;DHT22;38043;53.224;6.580;2023-09-19T13:34:58;17.20;99.90
52030;DHT22;38043;53.224;6.580;2023-09-19T13:37:27;17.50;99.90
52030;DHT22;38043;53.224;6.580;2023-09-19T13:39:52;17.40;99.90
52030;DHT22;38043;53.224;6.580;2023-09-19T13:42:19;17.40;99.90
52030;DHT22;38043;53.224;6.580;2023-09-19T13:44:47;17.40;99.90
52030;DHT22;38043;53.224;6.580;2023-09-19T13:47:13;17.40;99.90
52030;DHT22;38043;53.224;6.580;2023-09-19T13:49:40;17.40;99.90
52030;DHT22;38043;53.224;6.580;2023-09-19T13:52:08;17.50;99.90
52030;DHT22;38043;53.224;6.580;2023-09-19T13:54:34;17.60;99.90
52030;DHT22;38043;53.224;6.580;2023-09-19T13:57:00;17.60;99.90
52030;DHT22;38043;53.224;6.580;2023-09-19T13:59:26;17.60;99.90
52030;DHT22;38043;53.224;6.580;2023-09-19T14:01:54;17.80;99.90
52030;DHT22;38043;53.224;6.580;2023-09-19T14:04:20;17.20;99.90
52030;DHT22;38043;53.224;6.580;2023-09-19T14:06:49;17.80;99.90
52030;DHT22;38043;53.224;6.580;2023-09-19T14:09:15;17.90;99.90
52030;DHT22;38043;53.224;6.580;2023-09-19T14:11:43;17.60;99.90
52030;DHT22;38043;53.224;6.580;2023-09-19T14:14:12;17.90;99.90
52030;DHT22;38043;53.224;6.580;2023-09-19T14:16:38;17.80;99.90
52030;DHT22;38043;53.224;6.580;2023-09-19T14:19:06;17.80;99.90
52030;DHT22;38043;53.224;6.580;2023-09-19T14:21:36;17.90;99.90
52030;DHT22;38043;53.224;6.580;2023-09-19T14:24:07;17.90;99.90
52030;DHT22;38043;53.224;6.580;2023-09-19T14:26:41;17.80;99.90
52030;DHT22;38043;53.224;6.580;2023-09-19T14:29:07;17.90;99.90
52030;DHT22;38043;53.224;6.580;2023-09-19T14:31:33;17.60;99.90
52030;DHT22;38043;53.224;6.580;2023-09-19T14:33:59;18.00;99.90
52030;DHT22;38043;53.224;6.580;2023-09-19T14:36:29;18.00;99.90
52030;DHT22;38043;53.224;6.580;2023-09-19T14:38:58;18.00;99.90
52030;DHT22;38043;53.224;6.580;2023-09-19T14:41:32;18.40;99.90
52030;DHT22;38043;53.224;6.580;2023-09-19T14:44:19;18.40;99.90
52030;DHT22;38043;53.224;6.580;2023-09-19T14:46:55;17.30;99.90
52030;DHT22;38043;53.224;6.580;2023-09-19T14:49:35;18.00;99.90
52030;DHT22;38043;53.224;6.580;2023-09-19T14:52:11;18.00;99.90
52030;DHT22;38043;53.224;6.580;2023-09-19T14:54:46;17.80;99.90
52030;DHT22;38043;53.224;6.580;2023-09-19T14:57:12;17.90;99.90
52030;DHT22;38043;53.224;6.580;2023-09-19T14:59:39;17.90;99.90
52030;DHT22;38043;53.224;6.580;2023-09-19T15:02:06;17.90;99.90
52030;DHT22;38043;53.224;6.580;2023-09-19T15:04:34;17.80;99.90
52030;DHT22;38043;53.224;6.580;2023-09-19T15:07:08;17.80;99.90
52030;DHT22;38043;53.224;6.580;2023-09-19T15:09:37;17.80;99.90
52030;DHT22;38043;53.224;6.580;2023-09-19T15:12:05;18.10;99.90
52030;DHT22;38043;53.224;6.580;2023-09-19T15:14:31;17.70;99.90
52030;DHT22;38043;53.224;6.580;2023-09-19T15:16:57;17.70;99.90
52030;DHT22;38043;53.224;6.580;2023-09-19T15:19:22;17.70;99.90
52030;DHT22;38043;53.224;6.580;2023-09-19T15:21:48;17.70;99.90
52030;DHT22;38043;53.224;6.580;2023-09-19T15:24:14;17.60;99.90
52030;DHT22;38043;53.224;6.580;2023-09-19T15:26:42;17.60;99.90
52030;DHT22;38043;53.224;6.580;2023-09-19T15:29:10;17.60;99.90
52030;DHT22;38043;53.224;6.580;2023-09-19T15:31:36;17.50;99.90
52030;DHT22;38043;53.224;6.580;2023-09-19T15:34:03;17.50;99.90
52030;DHT22;38043;53.224;6.580;2023-09-19T15:36:29;17.50;99.90
52030;DHT22;38043;53.224;6.580;2023-09-19T15:39:03;17.30;99.90
52030;DHT22;38043;53.224;6.580;2023-09-19T15:41:42;17.40;99.90
52030;DHT22;38043;53.224;6.580;2023-09-19T15:44:15;17.30;99.90
52030;DHT22;38043;53.224;6.580;2023-09-19T15:46:42;17.30;99.90
52030;DHT22;38043;53.224;6.580;2023-09-19T15:49:09;17.20;99.90
52030;DHT22;38043;53.224;6.580;2023-09-19T15:51:35;17.20;99.90
52030;DHT22;38043;53.224;6.580;2023-09-19T15:54:02;17.20;99.90
52030;DHT22;38043;53.224;6.580;2023-09-19T15:56:34;17.10;99.90
52030;DHT22;38043;53.224;6.580;2023-09-19T15:59:00;17.10;99.90
52030;DHT22;38043;53.224;6.580;2023-09-19T16:01:26;17.10;99.90
52030;DHT22;38043;53.224;6.580;2023-09-19T16:03:54;17.10;99.90
52030;DHT22;38043;53.224;6.580;2023-09-19T16:06:25;17.10;99.90
52030;DHT22;38043;53.224;6.580;2023-09-19T16:08:54;17.10;99.90
52030;DHT22;38043;53.224;6.580;2023-09-19T16:11:21;17.00;99.90
52030;DHT22;38043;53.224;6.580;2023-09-19T16:13:49;17.00;99.90
52030;DHT22;38043;53.224;6.580;2023-09-19T16:16:15;17.00;99.90
52030;DHT22;38043;53.224;6.580;2023-09-19T16:19:01;17.10;99.90
52030;DHT22;38043;53.224;6.580;2023-09-19T16:21:29;17.10;99.90
52030;DHT22;38043;53.224;6.580;2023-09-19T16:23:57;17.10;99.90
52030;DHT22;38043;53.224;6.580;2023-09-19T16:26:23;17.00;99.90
52030;DHT22;38043;53.224;6.580;2023-09-19T16:28:51;17.00;99.90
52030;DHT22;38043;53.224;6.580;2023-09-19T16:31:17;17.00;99.90
52030;DHT22;38043;53.224;6.580;2023-09-19T16:33:45;17.00;99.90
52030;DHT22;38043;53.224;6.580;2023-09-19T16:36:18;17.00;99.90
52030;DHT22;38043;53.224;6.580;2023-09-19T16:38:46;17.00;99.90
52030;DHT22;38043;53.224;6.580;2023-09-19T16:41:13;16.90;99.90
52030;DHT22;38043;53.224;6.580;2023-09-19T16:43:39;17.50;99.90
52030;DHT22;38043;53.224;6.580;2023-09-19T16:46:07;16.90;99.90